Wilson Observed Data For Previous 48 Hours

Caption
Day and Hour Reservoir Elevation (behind dam)* Tailwater Elevation (below dam)* Average Hourly Discharge*
9/21/2017 1 AM CDT 506.89 413.54 20,544
9/21/2017 2 AM CDT 506.85 413.63 20,555
9/21/2017 3 AM CDT 506.83 414.04 28,003
9/21/2017 4 AM CDT 506.85 414.23 28,226
9/21/2017 5 AM CDT 506.81 414.53 35,458
9/21/2017 6 AM CDT 506.77 414.94 36,038
9/21/2017 7 AM CDT 506.79 415.32 46,020
9/21/2017 8 AM CDT 506.72 415.21 43,863
9/21/2017 9 AM CDT 506.73 415.16 43,516
9/21/2017 10 AM CDT 506.74 415.41 49,086
9/21/2017 11 AM CDT 506.69 415.84 52,095
9/21/2017 12 PM CDT 506.63 416.02 53,293
9/21/2017 1 PM CDT 506.72 416.16 60,152
9/21/2017 2 PM CDT 506.69 416.04 59,618
9/21/2017 3 PM CDT 506.71 416.14 58,880
9/21/2017 4 PM CDT 506.86 416.21 59,240
9/21/2017 5 PM CDT 506.73 416.24 59,490
9/21/2017 6 PM CDT 506.71 416.13 59,113
9/21/2017 7 PM CDT 506.71 415.82 53,286
9/21/2017 8 PM CDT 506.73 415.23 48,312
9/21/2017 9 PM CDT 506.67 415.51 46,062
9/21/2017 10 PM CDT 506.61 414.54 35,538
9/21/2017 11 PM CDT 506.61 413.90 27,575
9/22/2017 12 AM CDT 506.63 413.09 21,128
9/22/2017 1 AM CDT 506.62 413.19 20,547
9/22/2017 2 AM CDT 506.57 413.31 19,989
9/22/2017 3 AM CDT 506.60 413.38 20,820
9/22/2017 4 AM CDT 506.64 413.41 20,906
9/22/2017 5 AM CDT 506.56 413.40 21,614
9/22/2017 6 AM CDT 506.57 413.56 21,962
9/22/2017 7 AM CDT 506.62 413.85 28,633
9/22/2017 8 AM CDT 506.58 414.08 28,583
9/22/2017 9 AM CDT 506.61 414.05 29,402
9/22/2017 10 AM CDT 506.68 414.08 29,898
9/22/2017 11 AM CDT 506.63 414.14 29,829
9/22/2017 12 PM CDT 506.66 414.03 29,381
9/22/2017 1 PM CDT 506.71 414.21 28,534
9/22/2017 2 PM CDT 506.69 414.77 35,415
9/22/2017 3 PM CDT 506.68 415.13 43,310
9/22/2017 4 PM CDT 506.63 415.39 45,265
9/22/2017 5 PM CDT 506.66 415.29 44,837
9/22/2017 6 PM CDT 506.65 414.96 43,167
9/22/2017 7 PM CDT 506.57 415.07 42,037
9/22/2017 8 PM CDT 506.63 413.72 28,321
9/22/2017 9 PM CDT 506.65 413.85 27,741
9/22/2017 10 PM CDT 506.65 413.78 27,382
9/22/2017 11 PM CDT 506.70 413.94 27,908
9/23/2017 12 AM CDT 506.61 413.96 27,726
9/23/2017 1 AM CDT 506.67 413.60 21,714
9/23/2017 2 AM CDT 506.64 413.31 21,084

Elevations are in feet above sea level. Discharges are in cubic feet per second and are reported at the end of the hour.